createdAt,value
2023-03-17T00:00:39.271Z,102055.24
2023-03-17T00:03:22.268Z,102058.02
2023-03-17T00:05:50.264Z,102059.38
2023-03-17T00:08:23.175Z,102057.75
2023-03-17T00:10:51.779Z,102056.34
2023-03-17T00:13:19.714Z,102060.39
2023-03-17T00:15:52.352Z,102061.09
2023-03-17T00:18:20.540Z,102060.53
2023-03-17T00:20:48.907Z,102060.88
2023-03-17T00:23:24.458Z,102062.23
2023-03-17T00:25:54.374Z,102056.24
2023-03-17T00:28:24.121Z,102048.75
2023-03-17T00:30:56.506Z,102044.86
2023-03-17T00:33:26.834Z,102040.27
2023-03-17T00:35:55.323Z,102037.85
2023-03-17T00:38:24.481Z,102031.36
2023-03-17T00:40:52.389Z,102030.68
2023-03-17T00:43:23.259Z,102024.50
2023-03-17T00:45:51.516Z,102027.52
2023-03-17T00:48:20.847Z,102021.91
2023-03-17T00:50:49.799Z,102030.49
2023-03-17T00:53:19.650Z,102032.90
2023-03-17T00:55:48.044Z,102030.68
2023-03-17T00:58:19.290Z,102032.52
2023-03-17T01:00:47.553Z,102036.42
2023-03-17T01:03:15.668Z,102034.84
2023-03-17T01:05:43.554Z,102035.52
2023-03-17T01:08:12.070Z,102034.41
2023-03-17T01:10:42.796Z,102036.07
2023-03-17T01:13:12.365Z,102035.75
2023-03-17T01:15:44.519Z,102032.46
2023-03-17T01:18:14.646Z,102035.48
2023-03-17T01:20:42.799Z,102036.05
2023-03-17T01:23:10.879Z,102034.02
2023-03-17T01:25:53.291Z,102034.09
2023-03-17T01:28:32.040Z,102029.69
2023-03-17T01:31:00.637Z,102029.05
2023-03-17T01:33:29.136Z,102022.60
2023-03-17T01:35:56.888Z,102024.27
2023-03-17T01:38:24.777Z,102026.88
2023-03-17T01:40:53.688Z,102029.27
2023-03-17T01:43:23.886Z,102025.07
2023-03-17T01:46:22.804Z,102019.48
2023-03-17T01:49:15.719Z,102015.13
2023-03-17T01:51:52.666Z,102014.86
2023-03-17T01:54:37.319Z,102012.92
2023-03-17T01:57:10.764Z,102009.15
2023-03-17T01:59:42.369Z,102009.25
2023-03-17T02:02:11.196Z,102003.74
2023-03-17T02:04:40.377Z,101997.42
2023-03-17T02:07:08.451Z,101995.19
2023-03-17T02:09:38.719Z,101991.15
2023-03-17T02:12:07.057Z,101984.54
2023-03-17T02:14:36.644Z,101984.03
2023-03-17T02:17:04.590Z,101976.09
2023-03-17T02:19:32.447Z,101973.14
2023-03-17T02:22:00.372Z,101962.01
2023-03-17T02:24:31.011Z,101957.75
2023-03-17T02:27:03.738Z,101950.20
2023-03-17T02:29:34.180Z,101961.75
2023-03-17T02:32:02.759Z,101973.23
2023-03-17T02:34:31.845Z,101973.38
2023-03-17T02:36:59.770Z,101975.36
2023-03-17T02:39:28.092Z,101978.89
2023-03-17T02:41:56.052Z,101979.45
2023-03-17T02:44:24.040Z,101985.58
2023-03-17T02:46:54.450Z,101987.30
2023-03-17T02:49:22.817Z,101984.09
2023-03-17T02:51:50.748Z,101986.22
2023-03-17T02:54:19.395Z,101984.78
2023-03-17T02:56:47.166Z,101981.45
2023-03-17T02:59:14.976Z,101979.25
2023-03-17T03:01:44.070Z,101982.38
2023-03-17T03:04:12.041Z,101984.55
2023-03-17T03:06:42.762Z,101978.73
2023-03-17T03:09:11.926Z,101984.83
2023-03-17T03:11:39.862Z,101991.09
2023-03-17T03:14:08.229Z,101987.30
2023-03-17T03:16:36.147Z,101991.30
2023-03-17T03:19:04.606Z,101987.97
2023-03-17T03:21:32.601Z,101987.77
2023-03-17T03:24:00.388Z,101988.00
2023-03-17T03:26:28.470Z,101984.45
2023-03-17T03:28:58.517Z,101980.25
2023-03-17T03:31:26.816Z,101983.34
2023-03-17T03:33:54.673Z,101982.71
2023-03-17T03:36:22.623Z,101983.30
2023-03-17T03:38:50.489Z,101981.65
2023-03-17T03:41:18.378Z,101982.77
2023-03-17T03:43:46.332Z,101981.36
2023-03-17T03:46:15.723Z,101979.77
2023-03-17T03:48:43.743Z,101976.06
2023-03-17T03:51:11.562Z,101965.15
2023-03-17T03:53:39.375Z,101960.95
2023-03-17T03:56:07.618Z,101959.88
2023-03-17T03:58:35.772Z,101957.80
2023-03-17T04:01:05.374Z,101953.27
2023-03-17T04:03:33.557Z,101955.86
2023-03-17T04:06:01.397Z,101960.02
2023-03-17T04:08:29.612Z,101958.52
2023-03-17T04:10:58.009Z,101957.50
2023-03-17T04:13:25.781Z,101958.56
2023-03-17T04:15:53.627Z,101958.48
2023-03-17T04:18:21.749Z,101966.05
2023-03-17T04:20:49.579Z,101970.14
2023-03-17T04:23:17.595Z,101974.63
2023-03-17T04:25:46.101Z,101970.64
2023-03-17T04:28:14.323Z,101966.45
2023-03-17T04:30:42.564Z,101962.36
2023-03-17T04:33:10.904Z,101955.73
2023-03-17T04:35:38.950Z,101946.80
2023-03-17T04:38:07.461Z,101940.27
2023-03-17T04:40:35.838Z,101934.60
2023-03-17T04:43:04.224Z,101934.23
2023-03-17T04:45:32.770Z,101941.77
2023-03-17T04:48:01.020Z,101942.80
2023-03-17T04:50:29.702Z,101940.71
2023-03-17T04:52:58.020Z,101936.03
2023-03-17T04:55:26.227Z,101944.74
2023-03-17T04:57:54.399Z,101945.14
2023-03-17T05:00:25.837Z,101942.32
2023-03-17T05:02:54.111Z,101948.20
2023-03-17T05:05:22.280Z,101951.52
2023-03-17T05:07:50.533Z,101949.23
2023-03-17T05:10:18.761Z,101949.86
2023-03-17T05:12:47.409Z,101952.80
2023-03-17T05:15:16.034Z,101951.13
2023-03-17T05:17:44.172Z,101949.02
2023-03-17T05:20:12.784Z,101950.50
2023-03-17T05:22:41.006Z,101952.39
2023-03-17T05:25:09.325Z,101951.45
2023-03-17T05:27:39.924Z,101954.38
2023-03-17T05:30:09.599Z,101954.70
2023-03-17T05:32:37.737Z,101954.64
2023-03-17T05:35:06.281Z,101959.03
2023-03-17T05:37:35.027Z,101961.42
2023-03-17T05:40:03.603Z,101965.08
2023-03-17T05:42:31.823Z,101952.30
2023-03-17T05:45:00.193Z,101951.61
2023-03-17T05:47:28.515Z,101950.70
2023-03-17T05:49:57.104Z,101946.30
2023-03-17T05:52:25.218Z,101936.42
2023-03-17T05:54:53.660Z,101927.61
2023-03-17T05:57:21.978Z,101917.27
2023-03-17T05:59:51.142Z,101906.00
2023-03-17T06:02:19.336Z,101904.10
2023-03-17T06:04:47.451Z,101903.71
2023-03-17T06:07:15.475Z,101911.38
2023-03-17T06:09:43.602Z,101921.18
2023-03-17T06:12:11.652Z,101924.98
2023-03-17T06:14:39.857Z,101931.41
2023-03-17T06:17:08.482Z,101939.80
2023-03-17T06:19:36.619Z,101933.39
2023-03-17T06:22:04.796Z,101935.36
2023-03-17T06:24:33.502Z,101928.42
2023-03-17T06:27:01.570Z,101920.97
2023-03-17T06:29:30.220Z,101923.92
2023-03-17T06:32:06.322Z,101923.97
2023-03-17T06:34:45.445Z,101922.94
2023-03-17T06:37:13.447Z,101925.20
2023-03-17T06:39:42.456Z,101928.39
2023-03-17T06:42:10.473Z,101926.02
2023-03-17T06:44:38.688Z,101925.98
2023-03-17T06:47:06.933Z,101926.25
2023-03-17T06:49:34.982Z,101931.48
2023-03-17T06:52:03.128Z,101939.98
2023-03-17T06:54:31.779Z,101937.05
2023-03-17T06:56:59.923Z,101937.20
2023-03-17T06:59:28.137Z,101947.36
2023-03-17T07:01:56.471Z,101950.31
2023-03-17T07:04:24.545Z,101953.33
2023-03-17T07:06:52.565Z,101948.52
2023-03-17T07:09:21.036Z,101947.81
2023-03-17T07:11:49.786Z,101949.68
2023-03-17T07:14:18.834Z,101950.48
2023-03-17T07:16:48.649Z,101950.48
2023-03-17T07:19:16.862Z,101948.25
2023-03-17T07:21:46.897Z,101948.50
2023-03-17T07:24:15.399Z,101950.81
2023-03-17T07:26:43.786Z,101954.36
2023-03-17T07:29:11.849Z,101953.82
2023-03-17T07:31:39.953Z,101951.64
2023-03-17T07:34:08.005Z,101948.83
2023-03-17T07:36:36.107Z,101947.88
2023-03-17T07:39:04.243Z,101950.34
2023-03-17T07:41:32.237Z,101949.81
2023-03-17T07:44:00.776Z,101953.45
2023-03-17T07:46:28.958Z,101954.11
2023-03-17T07:48:57.032Z,101955.65
2023-03-17T07:51:28.343Z,101959.02
2023-03-17T07:54:03.896Z,101955.81
2023-03-17T07:56:32.388Z,101955.86
2023-03-17T07:59:00.429Z,101956.20
2023-03-17T08:01:28.520Z,101950.39
2023-03-17T08:03:56.757Z,101939.06
2023-03-17T08:06:27.885Z,101937.95
2023-03-17T08:08:55.932Z,101934.25
2023-03-17T08:11:24.231Z,101930.40
2023-03-17T08:13:53.626Z,101931.91
2023-03-17T08:16:22.194Z,101938.50
2023-03-17T08:18:50.178Z,101934.20
2023-03-17T08:21:18.164Z,101927.55
2023-03-17T08:23:47.463Z,101926.02
2023-03-17T08:26:16.071Z,101923.29
2023-03-17T08:28:44.997Z,101919.36
2023-03-17T08:31:15.449Z,101912.29
2023-03-17T08:33:46.256Z,101910.54
2023-03-17T08:36:18.032Z,101899.73
2023-03-17T08:38:46.760Z,101890.65
2023-03-17T08:41:17.072Z,101888.05
2023-03-17T08:43:45.563Z,101875.05
2023-03-17T08:46:22.185Z,101874.23
2023-03-17T08:48:51.241Z,101876.27
2023-03-17T08:51:22.084Z,101875.11
2023-03-17T08:53:52.081Z,101872.83
2023-03-17T08:56:20.121Z,101870.95
2023-03-17T08:58:48.390Z,101871.08
2023-03-17T09:01:16.762Z,101867.25
2023-03-17T09:03:45.723Z,101866.30
2023-03-17T09:06:13.789Z,101868.58
2023-03-17T09:08:45.203Z,101872.20
2023-03-17T09:11:18.075Z,101874.23
2023-03-17T09:13:46.618Z,101865.91
2023-03-17T09:16:14.915Z,101856.96
2023-03-17T09:18:43.202Z,101855.08
2023-03-17T09:21:12.154Z,101844.62
2023-03-17T09:23:40.330Z,101840.16
2023-03-17T09:26:09.220Z,101837.39
2023-03-17T09:28:37.480Z,101837.27
2023-03-17T09:31:06.401Z,101832.41
2023-03-17T09:33:34.727Z,101836.02
2023-03-17T09:36:02.742Z,101838.25
2023-03-17T09:38:31.959Z,101827.88
2023-03-17T09:41:02.641Z,101824.40
2023-03-17T09:43:52.755Z,101826.70
2023-03-17T09:46:23.659Z,101818.90
2023-03-17T09:49:12.702Z,101815.17
2023-03-17T09:51:40.842Z,101811.88
2023-03-17T09:54:22.046Z,101810.94
2023-03-17T09:56:54.062Z,101806.91
2023-03-17T09:59:22.067Z,101799.08
2023-03-17T10:01:50.421Z,101797.38
2023-03-17T10:04:18.984Z,101785.84
2023-03-17T10:06:48.446Z,101785.71
2023-03-17T10:09:42.870Z,101782.29
2023-03-17T10:12:32.459Z,101775.66
2023-03-17T10:15:06.901Z,101766.39
2023-03-17T10:17:35.846Z,101767.88
2023-03-17T10:20:17.987Z,101765.61
2023-03-17T10:22:50.465Z,101762.63
2023-03-17T10:25:22.361Z,101758.92
2023-03-17T10:27:57.801Z,101762.13
2023-03-17T10:30:26.176Z,101761.18
2023-03-17T10:32:56.321Z,101748.41
2023-03-17T10:35:24.641Z,101742.61
2023-03-17T10:38:04.394Z,101745.55
2023-03-17T10:40:40.587Z,101741.46
2023-03-17T10:43:14.434Z,101724.77
2023-03-17T10:45:47.949Z,101718.20
2023-03-17T10:48:19.305Z,101715.69
2023-03-17T10:50:49.296Z,101715.14
2023-03-17T10:53:19.681Z,101708.33
2023-03-17T10:55:52.056Z,101703.38
2023-03-17T10:58:22.633Z,101706.60
2023-03-17T11:01:00.167Z,101706.48
2023-03-17T11:03:30.126Z,101710.56
2023-03-17T11:06:02.457Z,101711.28
2023-03-17T11:08:41.716Z,101700.73
2023-03-17T11:11:21.354Z,101697.86
2023-03-17T11:13:49.380Z,101700.23
2023-03-17T11:16:22.543Z,101690.20
2023-03-17T11:18:58.046Z,101679.86
2023-03-17T11:21:52.383Z,101681.08
2023-03-17T11:24:25.385Z,101677.41
2023-03-17T11:27:17.982Z,101683.36
2023-03-17T11:30:17.566Z,101676.33
2023-03-17T11:32:48.111Z,101674.81
2023-03-17T11:35:25.178Z,101678.11
2023-03-17T11:38:21.075Z,101672.41
2023-03-17T11:41:05.054Z,101666.77
2023-03-17T11:43:44.061Z,101660.86
2023-03-17T11:46:44.426Z,101655.98
2023-03-17T11:49:24.349Z,101652.63
2023-03-17T11:52:12.408Z,101653.17
2023-03-17T11:54:54.368Z,101653.55
2023-03-17T11:57:25.495Z,101650.23
2023-03-17T12:00:00.051Z,101638.72
2023-03-17T12:02:30.984Z,101632.54
2023-03-17T12:05:10.961Z,101617.63
2023-03-17T12:07:58.370Z,101606.00
2023-03-17T12:10:35.008Z,101602.70
2023-03-17T12:13:07.580Z,101601.98
2023-03-17T12:15:43.719Z,101603.27
2023-03-17T12:18:16.197Z,101604.27
2023-03-17T12:20:58.994Z,101602.45
2023-03-17T12:23:49.793Z,101600.23
2023-03-17T12:26:32.092Z,101600.38
2023-03-17T12:29:15.591Z,101599.17
2023-03-17T12:32:05.784Z,101597.83
2023-03-17T12:34:44.779Z,101591.00
2023-03-17T12:37:13.072Z,101584.42
2023-03-17T12:39:41.345Z,101578.28
2023-03-17T12:42:16.696Z,101572.98
2023-03-17T12:44:48.001Z,101564.68
2023-03-17T12:47:43.125Z,101562.34
2023-03-17T12:50:32.934Z,101565.40
2023-03-17T12:53:20.122Z,101560.10
2023-03-17T12:55:50.129Z,101557.48
2023-03-17T12:58:29.650Z,101551.63
2023-03-17T13:01:07.253Z,101554.54
2023-03-17T13:03:37.269Z,101545.80
2023-03-17T13:06:07.688Z,101541.06
2023-03-17T13:08:38.160Z,101537.27
2023-03-17T13:11:37.561Z,101525.52
2023-03-17T13:14:34.182Z,101515.77
2023-03-17T13:17:17.942Z,101516.63
2023-03-17T13:20:14.571Z,101521.04
2023-03-17T13:23:11.520Z,101508.85
2023-03-17T13:25:40.105Z,101503.20
2023-03-17T13:28:13.939Z,101501.25
2023-03-17T13:30:49.680Z,101507.07
2023-03-17T13:33:25.037Z,101509.09
2023-03-17T13:36:09.523Z,101509.94
2023-03-17T13:38:52.515Z,101506.94
2023-03-17T13:41:40.772Z,101498.98
2023-03-17T13:44:43.358Z,101494.27
2023-03-17T13:47:17.436Z,101489.05
2023-03-17T13:49:51.484Z,101494.66
2023-03-17T13:52:39.626Z,101494.81
2023-03-17T13:55:23.859Z,101501.21
2023-03-17T13:58:11.704Z,101507.89
2023-03-17T14:00:41.861Z,101511.19
2023-03-17T14:03:48.980Z,101513.63
2023-03-17T14:06:18.890Z,101513.17
2023-03-17T14:09:00.011Z,101503.95
2023-03-17T14:11:40.681Z,101503.58
2023-03-17T14:14:31.473Z,101499.11
2023-03-17T14:17:12.249Z,101502.63
2023-03-17T14:19:41.934Z,101499.77
2023-03-17T14:22:21.553Z,101497.75
2023-03-17T14:24:56.180Z,101492.69
2023-03-17T14:27:24.299Z,101496.55
2023-03-17T14:29:52.517Z,101500.23
2023-03-17T14:32:21.717Z,101498.46
2023-03-17T14:34:57.707Z,101483.23
2023-03-17T14:37:26.133Z,101473.30
2023-03-17T14:39:55.771Z,101468.70
2023-03-17T14:42:31.568Z,101467.55
2023-03-17T14:45:07.455Z,101461.61
2023-03-17T14:47:38.970Z,101455.23
2023-03-17T14:50:31.059Z,101460.75
2023-03-17T14:52:59.886Z,101460.05
2023-03-17T14:55:43.329Z,101463.31
2023-03-17T14:58:28.918Z,101463.77
2023-03-17T15:01:02.653Z,101465.70
2023-03-17T15:03:31.895Z,101468.75
2023-03-17T15:06:28.117Z,101470.58
2023-03-17T15:09:00.682Z,101470.44
2023-03-17T15:11:38.277Z,101474.38
2023-03-17T15:14:22.152Z,101476.41
2023-03-17T15:16:51.506Z,101473.27
2023-03-17T15:19:21.429Z,101468.73
2023-03-17T15:21:49.690Z,101469.39
2023-03-17T15:24:39.745Z,101470.10
2023-03-17T15:27:14.979Z,101459.43
2023-03-17T15:29:43.195Z,101466.91
2023-03-17T15:32:15.416Z,101466.13
2023-03-17T15:34:43.579Z,101463.20
2023-03-17T15:37:32.494Z,101467.70
2023-03-17T15:40:01.420Z,101466.77
2023-03-17T15:42:31.215Z,101473.30
2023-03-17T15:45:02.861Z,101482.02
2023-03-17T15:47:37.071Z,101479.04
2023-03-17T15:50:16.214Z,101472.30
2023-03-17T15:52:44.785Z,101476.60
2023-03-17T15:55:19.319Z,101480.73
2023-03-17T15:57:54.748Z,101475.13
2023-03-17T16:00:24.991Z,101472.39
2023-03-17T16:02:56.339Z,101476.90
2023-03-17T16:05:26.702Z,101479.77
2023-03-17T16:07:55.507Z,101483.89
2023-03-17T16:10:28.331Z,101481.13
2023-03-17T16:12:56.600Z,101481.27
2023-03-17T16:15:26.610Z,101485.00
2023-03-17T16:17:55.872Z,101484.31
2023-03-17T16:20:36.109Z,101484.53
2023-03-17T16:23:14.883Z,101485.05
2023-03-17T16:25:43.291Z,101485.14
2023-03-17T16:28:16.951Z,101478.30
2023-03-17T16:30:46.150Z,101482.17
2023-03-17T16:33:22.638Z,101480.08
2023-03-17T16:35:52.613Z,101480.45
2023-03-17T16:38:22.658Z,101488.25
2023-03-17T16:40:55.314Z,101481.91
2023-03-17T16:43:26.567Z,101478.99
2023-03-17T16:45:56.516Z,101477.36
2023-03-17T16:48:24.963Z,101477.01
2023-03-17T16:50:53.347Z,101470.20
2023-03-17T16:53:21.604Z,101468.72
2023-03-17T16:55:50.304Z,101465.55
2023-03-17T16:58:26.332Z,101467.18
2023-03-17T17:00:57.646Z,101464.98
2023-03-17T17:03:25.989Z,101461.55
2023-03-17T17:05:54.176Z,101464.36
2023-03-17T17:08:22.737Z,101456.40
2023-03-17T17:10:51.559Z,101461.20
2023-03-17T17:13:19.833Z,101468.64
2023-03-17T17:15:48.040Z,101466.45
2023-03-17T17:18:27.200Z,101466.20
2023-03-17T17:20:57.113Z,101466.87
2023-03-17T17:23:26.829Z,101464.91
2023-03-17T17:25:55.011Z,101463.58
2023-03-17T17:28:23.796Z,101470.63
2023-03-17T17:30:52.251Z,101465.48
2023-03-17T17:33:20.461Z,101463.42
2023-03-17T17:35:48.876Z,101467.70
2023-03-17T17:38:26.829Z,101471.10
2023-03-17T17:41:02.485Z,101481.23
2023-03-17T17:43:30.614Z,101484.60
2023-03-17T17:45:58.566Z,101494.27
2023-03-17T17:48:27.118Z,101495.40
2023-03-17T17:50:56.203Z,101490.21
2023-03-17T17:53:24.420Z,101486.09
2023-03-17T17:55:52.533Z,101489.38
2023-03-17T17:58:24.517Z,101488.09
2023-03-17T18:00:55.726Z,101483.35
2023-03-17T18:03:25.432Z,101481.16
2023-03-17T18:05:54.334Z,101479.38
2023-03-17T18:08:23.130Z,101475.30
2023-03-17T18:10:52.277Z,101475.46
2023-03-17T18:13:20.557Z,101476.27
2023-03-17T18:15:49.666Z,101476.93
2023-03-17T18:18:17.657Z,101470.36
2023-03-17T18:20:45.661Z,101472.91
2023-03-17T18:23:13.722Z,101479.98
2023-03-17T18:25:41.724Z,101480.32
2023-03-17T18:28:09.794Z,101479.87
2023-03-17T18:30:38.383Z,101475.79
2023-03-17T18:33:09.480Z,101470.11
2023-03-17T18:35:37.638Z,101469.55
2023-03-17T18:38:05.805Z,101468.21
2023-03-17T18:40:34.208Z,101464.72
2023-03-17T18:43:02.450Z,101457.23
2023-03-17T18:45:30.386Z,101456.42
2023-03-17T18:47:58.274Z,101459.31
2023-03-17T18:50:26.619Z,101460.19
2023-03-17T18:52:55.878Z,101463.08
2023-03-17T18:55:23.815Z,101467.18
2023-03-17T18:57:52.192Z,101468.38
2023-03-17T19:00:20.436Z,101463.95
2023-03-17T19:02:48.558Z,101465.46
2023-03-17T19:05:16.674Z,101462.16
2023-03-17T19:07:44.747Z,101464.09
2023-03-17T19:10:12.775Z,101465.11
2023-03-17T19:12:41.197Z,101465.42
2023-03-17T19:15:10.791Z,101457.74
2023-03-17T19:17:39.568Z,101451.23
2023-03-17T19:20:08.285Z,101451.45
2023-03-17T19:22:36.383Z,101451.06
2023-03-17T19:25:04.531Z,101450.04
2023-03-17T19:27:33.438Z,101453.13
2023-03-17T19:30:01.765Z,101449.27
2023-03-17T19:32:29.867Z,101443.97
2023-03-17T19:34:57.907Z,101441.89
2023-03-17T19:37:26.215Z,101440.46
2023-03-17T19:39:54.455Z,101441.50
2023-03-17T19:42:22.467Z,101438.66
2023-03-17T19:44:50.646Z,101434.20
2023-03-17T19:47:18.665Z,101437.38
2023-03-17T19:49:47.286Z,101431.51
2023-03-17T19:52:15.521Z,101426.21
2023-03-17T19:54:46.137Z,101429.42
2023-03-17T19:57:14.577Z,101427.33
2023-03-17T19:59:43.121Z,101430.11
2023-03-17T20:02:13.206Z,101425.94
2023-03-17T20:04:41.480Z,101430.64
2023-03-17T20:07:09.865Z,101439.56
2023-03-17T20:09:38.007Z,101439.06
2023-03-17T20:12:06.219Z,101435.41
2023-03-17T20:14:34.654Z,101430.76
2023-03-17T20:17:02.855Z,101430.16
2023-03-17T20:19:31.121Z,101431.72
2023-03-17T20:21:59.050Z,101425.64
2023-03-17T20:24:29.274Z,101422.60
2023-03-17T20:26:59.506Z,101415.38
2023-03-17T20:29:28.417Z,101407.52
2023-03-17T20:31:56.492Z,101398.09
2023-03-17T20:34:24.621Z,101394.78
2023-03-17T20:36:52.951Z,101399.20
2023-03-17T20:39:21.755Z,101408.03
2023-03-17T20:41:50.946Z,101412.95
2023-03-17T20:44:19.095Z,101414.23
2023-03-17T20:46:48.324Z,101413.17
2023-03-17T20:49:17.414Z,101417.13
2023-03-17T20:51:46.415Z,101416.03
2023-03-17T20:54:14.764Z,101419.16
2023-03-17T20:56:43.017Z,101417.33
2023-03-17T20:59:19.763Z,101420.25
2023-03-17T21:02:18.687Z,101414.59
2023-03-17T21:08:34.119Z,101400.69
2023-03-17T21:11:02.901Z,101396.89
2023-03-17T21:13:31.695Z,101401.48
2023-03-17T21:16:00.801Z,101394.41
2023-03-17T21:18:29.734Z,101395.05
2023-03-17T21:20:57.886Z,101393.87
2023-03-17T21:23:27.485Z,101394.71
2023-03-17T21:25:56.272Z,101395.55
2023-03-17T21:28:24.288Z,101389.61
2023-03-17T21:30:52.289Z,101392.79
2023-03-17T21:33:21.608Z,101390.30
2023-03-17T21:35:50.001Z,101392.68
2023-03-17T21:38:18.050Z,101392.84
2023-03-17T21:40:46.094Z,101395.59
2023-03-17T21:43:15.085Z,101393.74
2023-03-17T21:45:44.758Z,101396.09
2023-03-17T21:48:12.967Z,101393.52
2023-03-17T21:50:41.459Z,101394.44
2023-03-17T21:53:10.401Z,101400.02
2023-03-17T21:55:38.518Z,101393.32
2023-03-17T21:58:08.360Z,101389.61
2023-03-17T22:00:45.091Z,101383.81
2023-03-17T22:03:14.086Z,101382.79
2023-03-17T22:05:42.542Z,101388.54
2023-03-17T22:08:11.365Z,101394.13
2023-03-17T22:10:40.254Z,101395.13
2023-03-17T22:13:08.643Z,101392.12
2023-03-17T22:15:37.250Z,101397.16
2023-03-17T22:18:06.251Z,101392.45
2023-03-17T22:20:34.769Z,101391.69
2023-03-17T22:23:03.407Z,101393.02
2023-03-17T22:25:31.479Z,101390.41
2023-03-17T22:27:59.756Z,101385.13
2023-03-17T22:30:27.797Z,101385.29
2023-03-17T22:32:55.848Z,101385.56
2023-03-17T22:35:25.177Z,101394.31
2023-03-17T22:37:53.169Z,101395.84
2023-03-17T22:40:21.631Z,101392.88
2023-03-17T22:42:49.616Z,101389.08
2023-03-17T22:45:17.840Z,101386.64
2023-03-17T22:47:46.250Z,101386.59
2023-03-17T22:50:14.671Z,101386.88
2023-03-17T22:52:42.776Z,101387.42
2023-03-17T22:55:10.893Z,101388.69
2023-03-17T22:57:41.740Z,101388.79
2023-03-17T23:00:19.469Z,101381.91
2023-03-17T23:02:57.785Z,101377.76
2023-03-17T23:05:32.172Z,101378.59
2023-03-17T23:08:05.700Z,101375.12
2023-03-17T23:10:33.989Z,101374.98
2023-03-17T23:13:01.950Z,101371.66
2023-03-17T23:15:30.062Z,101368.63
2023-03-17T23:17:58.851Z,101368.77
2023-03-17T23:20:26.913Z,101368.30
2023-03-17T23:22:58.292Z,101369.14
2023-03-17T23:25:26.710Z,101366.88
2023-03-17T23:27:54.777Z,101365.39
2023-03-17T23:30:22.784Z,101362.30
2023-03-17T23:32:50.822Z,101357.23
2023-03-17T23:35:19.657Z,101357.29
2023-03-17T23:37:47.588Z,101355.47
2023-03-17T23:40:17.421Z,101356.68
2023-03-17T23:42:49.168Z,101357.21
2023-03-17T23:45:18.215Z,101361.77
2023-03-17T23:47:46.905Z,101361.89
2023-03-17T23:50:15.998Z,101359.01
2023-03-17T23:52:44.110Z,101358.19
2023-03-17T23:55:12.295Z,101357.88
2023-03-17T23:57:40.255Z,101354.98
